Wednesday, April 25, 2018, 8:12 AM EDT
Back to Local

KMSS, Massena International -richards Fld

Location: Massena, NY, United States Lat: 44.933
Local Time: 8:12 AM EDT (12:12 GMT) Lon: -74.85
Time Zone: US/Eastern Elev: 213 ft

Show me the last for .
Show Decoded

2018-04-25 07:53 METAR KMSS 251153Z AUTO 00000KT 10SM -RA BKN050 BKN070 OVC090 12/08 A3003 RMK
                 AO2 SLP168 P0000 60000 T01170083 10156 20106 58001 =
2018-04-25 06:53 METAR KMSS 251053Z AUTO 00000KT 10SM -RA BKN055 OVC070 11/08 A3003 RMK AO2 RAB18
                 SLP171 P0000 T01110083 =
2018-04-25 05:53 METAR KMSS 250953Z AUTO 00000KT 10SM BKN055 OVC075 13/05 A3003 RMK AO2 SLP168
                 T01280050 =
2018-04-25 04:53 METAR KMSS 250853Z AUTO 21005KT 10SM BKN070 OVC080 13/04 A3003 RMK AO2 SLP170
                 T01280044 58007 =
2018-04-25 03:53 METAR KMSS 250753Z AUTO 21007KT 10SM BKN060 OVC075 14/04 A3005 RMK AO2 SLP175
                 T01390039 =
2018-04-25 02:53 METAR KMSS 250653Z AUTO 20006KT 10SM FEW070 OVC095 14/04 A3004 RMK AO2 SLP172
                 T01440039 =
2018-04-25 01:53 METAR KMSS 250553Z AUTO 20010KT 10SM BKN055 OVC080 16/03 A3005 RMK AO2 RAB15E30
                 SLP176 P0000 60000 T01560028 10172 20106 58008 =
2018-04-25 00:53 METAR KMSS 250453Z AUTO 00000KT 10SM OVC110 12/05 A3006 RMK AO2 SLP181 T01220050
                 402170006 =
2018-04-24 23:53 METAR KMSS 250353Z AUTO 00000KT 10SM CLR 11/06 A3007 RMK AO2 SLP183 T01110061 =
2018-04-24 22:53 METAR KMSS 250253Z AUTO 00000KT 10SM CLR 13/06 A3008 RMK AO2 SLP186 T01280056
                 58003 =
2018-04-24 21:53 METAR KMSS 250153Z AUTO 14003KT 10SM CLR 13/03 A3009 RMK AO2 SLP189 T01330028 =
2018-04-24 20:53 METAR KMSS 250053Z AUTO 30003KT 10SM CLR 16/03 A3009 RMK AO2 SLP189 T01560028 =
2018-04-24 19:53 METAR KMSS 242353Z AUTO 27004KT 10SM CLR 17/02 A3008 RMK AO2 SLP188 T01720022
                 10217 20172 56010 =
2018-04-24 18:53 METAR KMSS 242253Z AUTO 29004KT 10SM CLR 18/03 A3010 RMK AO2 SLP192 T01830033 =
2018-04-24 17:53 METAR KMSS 242153Z AUTO 26008KT 10SM CLR 19/04 A3010 RMK AO2 SLP196 T01940039 =
2018-04-24 16:53 METAR KMSS 242053Z AUTO 28009KT 10SM FEW110 20/04 A3011 RMK AO2 SLP200 T02000039
                 56017 =
2018-04-24 15:53 METAR KMSS 241953Z AUTO 26008KT 10SM CLR 21/04 A3012 RMK AO2 SLP202 T02110039 =
2018-04-24 14:53 METAR KMSS 241853Z AUTO 23011KT 10SM CLR 21/05 A3014 RMK AO2 SLP210 T02110050 =
2018-04-24 13:53 METAR KMSS 241753Z AUTO 25008KT 10SM CLR 22/06 A3017 RMK AO2 SLP217 T02170056
                 10217 20156 58021 =
2018-04-24 12:53 METAR KMSS 241653Z AUTO 23009G19KT 10SM CLR 21/06 A3018 RMK AO2 SLP223 T02110061
                 =
2018-04-24 11:53 METAR KMSS 241553Z AUTO 21013KT 10SM CLR 20/06 A3021 RMK AO2 SLP232 T02000056 =
2018-04-24 10:53 METAR KMSS 241453Z AUTO 21016G21KT 10SM CLR 19/05 A3023 RMK AO2 SLP238 T01940050
                 58006 =
2018-04-24 09:53 METAR KMSS 241353Z AUTO 22013KT 10SM CLR 17/04 A3024 RMK AO2 SLP242 T01720039 =
2018-04-24 08:53 METAR KMSS 241253Z AUTO 21015KT 10SM CLR 17/03 A3025 RMK AO2 SLP245 T01670033 =

Support USWX by starting your Amazon purchase here.